AZA1795 LIMC-LICJ
Flight info
| Callsign | AZA1795 |
|---|---|
| Flight time | 1h 15m |
| Altitude | 37000 |
| Route | ROBAS DCT BEROK DCT TINKU DCT ROSKI DCT GIANO |
| Aircraft | A320/M-SDE3FGHIRWY/LB1 |
Departure
| Time | 2026-02-17 05:05 |
|---|---|
| Airport | Milan Malpensa International Airport (LIMC) |
Arrival
| Time | 2026-02-17 06:20 |
|---|---|
| Airport | Falcone–Borsellino Airport (LICJ) |
| Time | Latitude | Longitude | Altitude | Speed | Heading |
|---|---|---|---|---|---|
| 2026-02-17 04:44 | 45.62771 | 8.71676 | 741 ft | 0 kts | 259° |
| 2026-02-17 04:55 | 45.62774 | 8.71699 | 741 ft | 2 kts | 259° |
| 2026-02-17 04:55 | 45.62777 | 8.71723 | 741 ft | 2 kts | 259° |
| 2026-02-17 04:55 | 45.62780 | 8.71747 | 741 ft | 2 kts | 259° |
| 2026-02-17 04:55 | 45.62784 | 8.71771 | 740 ft | 2 kts | 218° |
| 2026-02-17 04:56 | 45.62794 | 8.71778 | 738 ft | 0 kts | 174° |
| 2026-02-17 04:58 | 45.62784 | 8.71782 | 739 ft | 5 kts | 166° |
| 2026-02-17 04:58 | 45.62715 | 8.71811 | 741 ft | 12 kts | 168° |
| 2026-02-17 04:58 | 45.62662 | 8.71875 | 741 ft | 10 kts | 95° |
| 2026-02-17 04:59 | 45.62681 | 8.72098 | 741 ft | 12 kts | 104° |
| 2026-02-17 04:59 | 45.62607 | 8.72152 | 741 ft | 13 kts | 171° |
| 2026-02-17 04:59 | 45.62515 | 8.72176 | 741 ft | 14 kts | 167° |
| 2026-02-17 04:59 | 45.62429 | 8.72203 | 741 ft | 12 kts | 169° |
| 2026-02-17 05:00 | 45.62337 | 8.72226 | 741 ft | 14 kts | 170° |
| 2026-02-17 05:00 | 45.62248 | 8.72260 | 741 ft | 14 kts | 145° |
| 2026-02-17 05:00 | 45.62235 | 8.72400 | 741 ft | 16 kts | 80° |
| 2026-02-17 05:00 | 45.62250 | 8.72510 | 741 ft | 18 kts | 78° |
| 2026-02-17 05:01 | 45.62289 | 8.72775 | 741 ft | 23 kts | 81° |
| 2026-02-17 05:01 | 45.62304 | 8.72904 | 741 ft | 17 kts | 80° |
| 2026-02-17 05:01 | 45.62272 | 8.73029 | 741 ft | 14 kts | 161° |
| 2026-02-17 05:01 | 45.62185 | 8.73054 | 740 ft | 12 kts | 169° |
| 2026-02-17 05:02 | 45.62107 | 8.73074 | 742 ft | 13 kts | 169° |
| 2026-02-17 05:02 | 45.62002 | 8.73105 | 740 ft | 19 kts | 168° |
| 2026-02-17 05:02 | 45.61865 | 8.73141 | 742 ft | 21 kts | 169° |
| 2026-02-17 05:03 | 45.61649 | 8.73408 | 741 ft | 22 kts | 123° |
| 2026-02-17 05:03 | 45.61595 | 8.73549 | 742 ft | 13 kts | 104° |
| 2026-02-17 05:03 | 45.61595 | 8.73667 | 742 ft | 11 kts | 82° |
| 2026-02-17 05:03 | 45.61642 | 8.73728 | 742 ft | 9 kts | 4° |
| 2026-02-17 05:04 | 45.61673 | 8.73725 | 742 ft | 0 kts | 353° |
| 2026-02-17 05:04 | 45.61853 | 8.73680 | 742 ft | 63 kts | 348° |
| 2026-02-17 05:04 | 45.62499 | 8.73496 | 742 ft | 124 kts | 348° |
| 2026-02-17 05:04 | 45.63510 | 8.73207 | 808 ft | 163 kts | 347° |
| 2026-02-17 05:05 | 45.64584 | 8.72913 | 1506 ft | 155 kts | 349° |
| 2026-02-17 05:05 | 45.65629 | 8.72517 | 2098 ft | 161 kts | 332° |
| 2026-02-17 05:05 | 45.66530 | 8.71405 | 2381 ft | 185 kts | 306° |
| 2026-02-17 05:05 | 45.67024 | 8.69585 | 2651 ft | 213 kts | 277° |
| 2026-02-17 05:06 | 45.66750 | 8.67423 | 3197 ft | 233 kts | 245° |
| 2026-02-17 05:06 | 45.65602 | 8.65728 | 3986 ft | 247 kts | 210° |
| 2026-02-17 05:06 | 45.63891 | 8.65295 | 4809 ft | 260 kts | 172° |
| 2026-02-17 05:07 | 45.60431 | 8.67041 | 6457 ft | 270 kts | 157° |
| 2026-02-17 05:07 | 45.58698 | 8.68169 | 7169 ft | 278 kts | 156° |
| 2026-02-17 05:07 | 45.56923 | 8.69337 | 7901 ft | 285 kts | 156° |
| 2026-02-17 05:07 | 45.55122 | 8.70504 | 8613 ft | 292 kts | 156° |
| 2026-02-17 05:08 | 45.53245 | 8.71699 | 9342 ft | 299 kts | 156° |
| 2026-02-17 05:08 | 45.51343 | 8.72986 | 10034 ft | 305 kts | 154° |
| 2026-02-17 05:08 | 45.49429 | 8.74344 | 10763 ft | 309 kts | 153° |
| 2026-02-17 05:08 | 45.47505 | 8.75733 | 11511 ft | 312 kts | 153° |
| 2026-02-17 05:09 | 45.45561 | 8.77147 | 12268 ft | 315 kts | 150° |
| 2026-02-17 05:09 | 45.43768 | 8.78942 | 13007 ft | 316 kts | 134° |
| 2026-02-17 05:09 | 45.42316 | 8.81274 | 13572 ft | 318 kts | 120° |
| 2026-02-17 05:09 | 45.41245 | 8.84111 | 13729 ft | 333 kts | 104° |
| 2026-02-17 05:10 | 45.40477 | 8.87330 | 13865 ft | 355 kts | 103° |
| 2026-02-17 05:10 | 45.39673 | 8.90742 | 14182 ft | 369 kts | 103° |
| 2026-02-17 05:10 | 45.38837 | 8.94232 | 14778 ft | 375 kts | 104° |
| 2026-02-17 05:11 | 45.37119 | 9.01233 | 16171 ft | 380 kts | 104° |
| 2026-02-17 05:11 | 45.36240 | 9.04785 | 16811 ft | 383 kts | 104° |
| 2026-02-17 05:11 | 45.35354 | 9.08373 | 17444 ft | 386 kts | 104° |
| 2026-02-17 05:11 | 45.34461 | 9.11988 | 18060 ft | 389 kts | 104° |
| 2026-02-17 05:12 | 45.33562 | 9.15638 | 18586 ft | 393 kts | 104° |
| 2026-02-17 05:12 | 45.32656 | 9.19326 | 19102 ft | 397 kts | 104° |
| 2026-02-17 05:12 | 45.31742 | 9.23043 | 19621 ft | 401 kts | 104° |
| 2026-02-17 05:12 | 45.30818 | 9.26798 | 20136 ft | 405 kts | 104° |
| 2026-02-17 05:13 | 45.29882 | 9.30591 | 20690 ft | 409 kts | 104° |
| 2026-02-17 05:13 | 45.28933 | 9.34404 | 21278 ft | 411 kts | 105° |
| 2026-02-17 05:13 | 45.27975 | 9.38242 | 21786 ft | 414 kts | 105° |
| 2026-02-17 05:13 | 45.27010 | 9.42106 | 22313 ft | 417 kts | 105° |
| 2026-02-17 05:14 | 45.26037 | 9.46007 | 22801 ft | 421 kts | 105° |
| 2026-02-17 05:14 | 45.25059 | 9.49934 | 23280 ft | 425 kts | 104° |
| 2026-02-17 05:14 | 45.24069 | 9.53908 | 23657 ft | 429 kts | 104° |
| 2026-02-17 05:15 | 45.22051 | 9.61963 | 24338 ft | 439 kts | 105° |
| 2026-02-17 05:15 | 45.20788 | 9.65953 | 24677 ft | 449 kts | 115° |
| 2026-02-17 05:15 | 45.19025 | 9.69648 | 25039 ft | 457 kts | 127° |
| 2026-02-17 05:15 | 45.16795 | 9.72906 | 25341 ft | 464 kts | 138° |
| 2026-02-17 05:16 | 45.14168 | 9.75611 | 25571 ft | 471 kts | 150° |
| 2026-02-17 05:16 | 45.11219 | 9.77667 | 25850 ft | 475 kts | 158° |
| 2026-02-17 05:16 | 45.08172 | 9.79540 | 26141 ft | 479 kts | 158° |
| 2026-02-17 05:16 | 45.05100 | 9.81427 | 26422 ft | 484 kts | 158° |
| 2026-02-17 05:17 | 45.01998 | 9.83333 | 26724 ft | 488 kts | 158° |
| 2026-02-17 05:17 | 44.98870 | 9.85257 | 26988 ft | 492 kts | 158° |
| 2026-02-17 05:17 | 44.95713 | 9.87200 | 27265 ft | 497 kts | 158° |
| 2026-02-17 05:17 | 44.92570 | 9.89136 | 27467 ft | 503 kts | 158° |
| 2026-02-17 05:18 | 44.89351 | 9.91115 | 27729 ft | 507 kts | 158° |
| 2026-02-17 05:18 | 44.86098 | 9.93114 | 28012 ft | 511 kts | 159° |
| 2026-02-17 05:18 | 44.82837 | 9.95111 | 28409 ft | 512 kts | 159° |
| 2026-02-17 05:19 | 44.76268 | 9.99125 | 29015 ft | 518 kts | 159° |
| 2026-02-17 05:19 | 44.72952 | 10.01149 | 29189 ft | 522 kts | 159° |
| 2026-02-17 05:19 | 44.69610 | 10.03185 | 29410 ft | 526 kts | 159° |
| 2026-02-17 05:19 | 44.66242 | 10.05235 | 29653 ft | 529 kts | 159° |
| 2026-02-17 05:20 | 44.62848 | 10.07299 | 29873 ft | 533 kts | 159° |
| 2026-02-17 05:20 | 44.59436 | 10.09370 | 30106 ft | 535 kts | 159° |
| 2026-02-17 05:20 | 44.56010 | 10.11448 | 30338 ft | 537 kts | 159° |
| 2026-02-17 05:20 | 44.52574 | 10.13531 | 30465 ft | 540 kts | 159° |
| 2026-02-17 05:21 | 44.49109 | 10.15625 | 30643 ft | 544 kts | 159° |
| 2026-02-17 05:21 | 44.42133 | 10.19824 | 31071 ft | 547 kts | 159° |
| 2026-02-17 05:21 | 44.38644 | 10.21921 | 31458 ft | 543 kts | 159° |
| 2026-02-17 05:22 | 44.35183 | 10.23999 | 31879 ft | 540 kts | 159° |
| 2026-02-17 05:22 | 44.31730 | 10.26073 | 32169 ft | 539 kts | 159° |
| 2026-02-17 05:22 | 44.28286 | 10.28139 | 32442 ft | 539 kts | 159° |
| 2026-02-17 05:23 | 44.21438 | 10.32246 | 32937 ft | 539 kts | 159° |
| 2026-02-17 05:23 | 44.17989 | 10.34308 | 33230 ft | 539 kts | 159° |
| 2026-02-17 05:23 | 44.14526 | 10.36297 | 33481 ft | 538 kts | 162° |
| 2026-02-17 05:23 | 44.11017 | 10.38111 | 33701 ft | 538 kts | 164° |
| 2026-02-17 05:24 | 44.07479 | 10.39769 | 33947 ft | 536 kts | 166° |
| 2026-02-17 05:24 | 44.03922 | 10.41337 | 34207 ft | 535 kts | 167° |
| 2026-02-17 05:24 | 44.00370 | 10.42879 | 34473 ft | 534 kts | 167° |
| 2026-02-17 05:24 | 43.96834 | 10.44443 | 34734 ft | 533 kts | 166° |
| 2026-02-17 05:25 | 43.93311 | 10.46048 | 34948 ft | 532 kts | 166° |
| 2026-02-17 05:25 | 43.89793 | 10.47692 | 35154 ft | 533 kts | 165° |
| 2026-02-17 05:25 | 43.86287 | 10.49355 | 35371 ft | 532 kts | 165° |
| 2026-02-17 05:25 | 43.82788 | 10.51025 | 35597 ft | 531 kts | 165° |
| 2026-02-17 05:26 | 43.79297 | 10.52680 | 35830 ft | 530 kts | 165° |
| 2026-02-17 05:26 | 43.75801 | 10.54321 | 36070 ft | 529 kts | 166° |
| 2026-02-17 05:26 | 43.72316 | 10.55945 | 36246 ft | 529 kts | 166° |
| 2026-02-17 05:27 | 43.65341 | 10.59180 | 36616 ft | 527 kts | 166° |
| 2026-02-17 05:27 | 43.61878 | 10.60788 | 36676 ft | 523 kts | 166° |
| 2026-02-17 05:27 | 43.54996 | 10.63982 | 36680 ft | 521 kts | 166° |
| 2026-02-17 05:28 | 43.48117 | 10.67162 | 36682 ft | 522 kts | 166° |
| 2026-02-17 05:28 | 43.41223 | 10.70342 | 36679 ft | 522 kts | 166° |
| 2026-02-17 05:29 | 43.34332 | 10.73519 | 36683 ft | 522 kts | 166° |
| 2026-02-17 05:29 | 43.27486 | 10.76664 | 36650 ft | 524 kts | 166° |
| 2026-02-17 05:30 | 43.20554 | 10.79830 | 36651 ft | 525 kts | 166° |
| 2026-02-17 05:31 | 43.10127 | 10.84581 | 36646 ft | 527 kts | 166° |
| 2026-02-17 05:31 | 43.03156 | 10.87767 | 36663 ft | 528 kts | 166° |
| 2026-02-17 05:32 | 42.96175 | 10.90948 | 36673 ft | 529 kts | 166° |
| 2026-02-17 05:32 | 42.89183 | 10.94119 | 36641 ft | 530 kts | 166° |
| 2026-02-17 05:33 | 42.82174 | 10.97290 | 36612 ft | 532 kts | 167° |
| 2026-02-17 05:33 | 42.75141 | 11.00455 | 36619 ft | 533 kts | 167° |
| 2026-02-17 05:34 | 42.68079 | 11.03592 | 36601 ft | 534 kts | 168° |
| 2026-02-17 05:34 | 42.60941 | 11.06444 | 36654 ft | 535 kts | 170° |
| 2026-02-17 05:35 | 42.50229 | 11.10470 | 36677 ft | 535 kts | 170° |
| 2026-02-17 05:35 | 42.43067 | 11.13250 | 36661 ft | 536 kts | 169° |
| 2026-02-17 05:36 | 42.35899 | 11.16078 | 36673 ft | 536 kts | 169° |
| 2026-02-17 05:36 | 42.28727 | 11.18892 | 36685 ft | 537 kts | 169° |
| 2026-02-17 05:37 | 42.21549 | 11.21677 | 36686 ft | 537 kts | 169° |
| 2026-02-17 05:37 | 42.14366 | 11.24447 | 36692 ft | 537 kts | 169° |
| 2026-02-17 05:38 | 42.07180 | 11.27218 | 36699 ft | 537 kts | 169° |
| 2026-02-17 05:39 | 41.96396 | 11.31386 | 36712 ft | 537 kts | 169° |
| 2026-02-17 05:39 | 41.89224 | 11.34142 | 36708 ft | 535 kts | 170° |
| 2026-02-17 05:40 | 41.82118 | 11.36861 | 36642 ft | 534 kts | 171° |
| 2026-02-17 05:40 | 41.74971 | 11.39586 | 36660 ft | 534 kts | 171° |
| 2026-02-17 05:41 | 41.67819 | 11.42315 | 36670 ft | 535 kts | 171° |
| 2026-02-17 05:41 | 41.60654 | 11.45039 | 36654 ft | 535 kts | 171° |
| 2026-02-17 05:42 | 41.53439 | 11.47777 | 36688 ft | 540 kts | 171° |
| 2026-02-17 05:42 | 41.46216 | 11.50515 | 36692 ft | 540 kts | 171° |
| 2026-02-17 05:43 | 41.35372 | 11.54617 | 36655 ft | 541 kts | 171° |
| 2026-02-17 05:43 | 41.28121 | 11.57348 | 36665 ft | 542 kts | 171° |
| 2026-02-17 05:44 | 41.20898 | 11.60053 | 36677 ft | 543 kts | 171° |
| 2026-02-17 05:44 | 41.13612 | 11.62783 | 36698 ft | 546 kts | 171° |
| 2026-02-17 05:45 | 41.06283 | 11.65525 | 36702 ft | 548 kts | 171° |
| 2026-02-17 05:45 | 40.98948 | 11.68267 | 36765 ft | 547 kts | 171° |
| 2026-02-17 05:46 | 40.95300 | 11.69629 | 36615 ft | 541 kts | 172° |
| 2026-02-17 05:46 | 40.91668 | 11.70981 | 36705 ft | 544 kts | 172° |
| 2026-02-17 05:47 | 40.80705 | 11.75038 | 36713 ft | 546 kts | 172° |
| 2026-02-17 05:47 | 40.69783 | 11.79074 | 36680 ft | 545 kts | 172° |
| 2026-02-17 05:48 | 40.62488 | 11.81780 | 36710 ft | 545 kts | 172° |
| 2026-02-17 05:48 | 40.55180 | 11.84473 | 36719 ft | 544 kts | 172° |
| 2026-02-17 05:49 | 40.47879 | 11.87142 | 36675 ft | 544 kts | 173° |
| 2026-02-17 05:49 | 40.40588 | 11.89804 | 36695 ft | 545 kts | 173° |
| 2026-02-17 05:50 | 40.33274 | 11.92474 | 36709 ft | 545 kts | 173° |
| 2026-02-17 05:51 | 40.22311 | 11.96485 | 36683 ft | 545 kts | 173° |
| 2026-02-17 05:51 | 40.15047 | 11.99126 | 36700 ft | 545 kts | 173° |
| 2026-02-17 05:52 | 40.07728 | 12.01771 | 36724 ft | 546 kts | 173° |
| 2026-02-17 05:52 | 40.00409 | 12.04418 | 36776 ft | 546 kts | 173° |
| 2026-02-17 05:53 | 39.94340 | 12.06613 | 36714 ft | 543 kts | 173° |
| 2026-02-17 05:53 | 39.87056 | 12.09228 | 36717 ft | 543 kts | 173° |
| 2026-02-17 05:54 | 39.79772 | 12.11843 | 36727 ft | 544 kts | 173° |
| 2026-02-17 05:54 | 39.72471 | 12.14473 | 36742 ft | 545 kts | 173° |
| 2026-02-17 05:55 | 39.65167 | 12.17105 | 36406 ft | 544 kts | 174° |
| 2026-02-17 05:55 | 39.61510 | 12.18411 | 35727 ft | 547 kts | 175° |
| 2026-02-17 05:55 | 39.57807 | 12.19719 | 34678 ft | 555 kts | 176° |
| 2026-02-17 05:55 | 39.54068 | 12.21037 | 33964 ft | 555 kts | 177° |
| 2026-02-17 05:56 | 39.50395 | 12.22342 | 33237 ft | 555 kts | 177° |
| 2026-02-17 05:56 | 39.46682 | 12.23667 | 32562 ft | 552 kts | 176° |
| 2026-02-17 05:56 | 39.42985 | 12.24991 | 31857 ft | 551 kts | 176° |
| 2026-02-17 05:56 | 39.39299 | 12.26306 | 31172 ft | 549 kts | 175° |
| 2026-02-17 05:57 | 39.35622 | 12.27614 | 30469 ft | 546 kts | 175° |
| 2026-02-17 05:57 | 39.31963 | 12.28912 | 29816 ft | 544 kts | 175° |
| 2026-02-17 05:57 | 39.28317 | 12.30203 | 29181 ft | 541 kts | 174° |
| 2026-02-17 05:57 | 39.24700 | 12.31486 | 28454 ft | 539 kts | 174° |
| 2026-02-17 05:58 | 39.21098 | 12.32764 | 27816 ft | 536 kts | 174° |
| 2026-02-17 05:58 | 39.17522 | 12.34026 | 27270 ft | 531 kts | 174° |
| 2026-02-17 05:58 | 39.13954 | 12.35279 | 26621 ft | 528 kts | 174° |
| 2026-02-17 05:59 | 39.06899 | 12.37766 | 25436 ft | 523 kts | 174° |
| 2026-02-17 05:59 | 39.03391 | 12.38999 | 24929 ft | 520 kts | 174° |
| 2026-02-17 05:59 | 38.99886 | 12.40225 | 24211 ft | 523 kts | 174° |
| 2026-02-17 05:59 | 38.96454 | 12.41421 | 23927 ft | 515 kts | 174° |
| 2026-02-17 06:00 | 38.93006 | 12.42633 | 23427 ft | 514 kts | 172° |
| 2026-02-17 06:00 | 38.89671 | 12.44410 | 22873 ft | 524 kts | 154° |
| 2026-02-17 06:00 | 38.86750 | 12.47188 | 22427 ft | 523 kts | 135° |
| 2026-02-17 06:00 | 38.84465 | 12.50771 | 21982 ft | 512 kts | 116° |
| 2026-02-17 06:01 | 38.82782 | 12.54743 | 21528 ft | 504 kts | 112° |
| 2026-02-17 06:01 | 38.81158 | 12.58710 | 21095 ft | 499 kts | 112° |
| 2026-02-17 06:01 | 38.79545 | 12.62634 | 20676 ft | 495 kts | 112° |
| 2026-02-17 06:01 | 38.77943 | 12.66517 | 20267 ft | 490 kts | 112° |
| 2026-02-17 06:02 | 38.76357 | 12.70351 | 19861 ft | 485 kts | 113° |
| 2026-02-17 06:02 | 38.74782 | 12.74147 | 19460 ft | 480 kts | 113° |
| 2026-02-17 06:02 | 38.73217 | 12.77910 | 19095 ft | 475 kts | 114° |
| 2026-02-17 06:03 | 38.70155 | 12.85266 | 18456 ft | 462 kts | 115° |
| 2026-02-17 06:03 | 38.68653 | 12.88877 | 18097 ft | 456 kts | 115° |
| 2026-02-17 06:03 | 38.67171 | 12.92437 | 17678 ft | 451 kts | 115° |
| 2026-02-17 06:03 | 38.65720 | 12.95919 | 17265 ft | 447 kts | 116° |
| 2026-02-17 06:04 | 38.64248 | 12.99451 | 16841 ft | 442 kts | 116° |
| 2026-02-17 06:04 | 38.62810 | 13.02898 | 16445 ft | 437 kts | 116° |
| 2026-02-17 06:04 | 38.61405 | 13.06262 | 15973 ft | 433 kts | 116° |
| 2026-02-17 06:04 | 38.59962 | 13.09699 | 15483 ft | 432 kts | 117° |
| 2026-02-17 06:05 | 38.58562 | 13.13023 | 15107 ft | 428 kts | 117° |
| 2026-02-17 06:05 | 38.57140 | 13.16390 | 14808 ft | 422 kts | 119° |
| 2026-02-17 06:05 | 38.55610 | 13.19491 | 14481 ft | 414 kts | 131° |
| 2026-02-17 06:05 | 38.53639 | 13.22125 | 13741 ft | 413 kts | 146° |
| 2026-02-17 06:06 | 38.51230 | 13.24154 | 12565 ft | 417 kts | 160° |
| 2026-02-17 06:06 | 38.48503 | 13.25285 | 11400 ft | 409 kts | 182° |
| 2026-02-17 06:06 | 38.45749 | 13.24998 | 10324 ft | 391 kts | 206° |
| 2026-02-17 06:07 | 38.42003 | 13.20806 | 8298 ft | 349 kts | 255° |
| 2026-02-17 06:07 | 38.41149 | 13.17960 | 7566 ft | 341 kts | 251° |
| 2026-02-17 06:07 | 38.39631 | 13.15746 | 7393 ft | 330 kts | 223° |
| 2026-02-17 06:07 | 38.37503 | 13.14793 | 7287 ft | 326 kts | 193° |
| 2026-02-17 06:08 | 38.35295 | 13.15283 | 7164 ft | 324 kts | 161° |
| 2026-02-17 06:08 | 38.33579 | 13.17045 | 6942 ft | 313 kts | 123° |
| 2026-02-17 06:08 | 38.32857 | 13.19488 | 6830 ft | 283 kts | 84° |
| 2026-02-17 06:08 | 38.33127 | 13.21866 | 6728 ft | 264 kts | 59° |
| 2026-02-17 06:09 | 38.33813 | 13.23995 | 6630 ft | 260 kts | 56° |
| 2026-02-17 06:09 | 38.34451 | 13.26130 | 6497 ft | 260 kts | 56° |
| 2026-02-17 06:09 | 38.35124 | 13.28259 | 6320 ft | 259 kts | 57° |
| 2026-02-17 06:09 | 38.35763 | 13.30407 | 6125 ft | 258 kts | 57° |
| 2026-02-17 06:10 | 38.36398 | 13.32532 | 5937 ft | 255 kts | 57° |
| 2026-02-17 06:10 | 38.37041 | 13.34620 | 5728 ft | 252 kts | 56° |
| 2026-02-17 06:10 | 38.37698 | 13.36680 | 5524 ft | 250 kts | 55° |
| 2026-02-17 06:11 | 38.38003 | 13.41124 | 5136 ft | 273 kts | 113° |
| 2026-02-17 06:11 | 38.36814 | 13.42917 | 5066 ft | 261 kts | 147° |
| 2026-02-17 06:11 | 38.35255 | 13.44008 | 4930 ft | 251 kts | 169° |
| 2026-02-17 06:11 | 38.33600 | 13.44454 | 4733 ft | 235 kts | 189° |
| 2026-02-17 06:12 | 38.32034 | 13.44322 | 4573 ft | 217 kts | 206° |
| 2026-02-17 06:12 | 38.30673 | 13.43743 | 4391 ft | 202 kts | 221° |
| 2026-02-17 06:12 | 38.29530 | 13.42820 | 4229 ft | 188 kts | 235° |
| 2026-02-17 06:12 | 38.28647 | 13.41665 | 4073 ft | 177 kts | 247° |
| 2026-02-17 06:13 | 38.28035 | 13.40363 | 3944 ft | 167 kts | 259° |
| 2026-02-17 06:13 | 38.27581 | 13.39004 | 3827 ft | 167 kts | 259° |
| 2026-02-17 06:13 | 38.27130 | 13.37650 | 3690 ft | 166 kts | 259° |
| 2026-02-17 06:13 | 38.26682 | 13.36302 | 3579 ft | 165 kts | 259° |
| 2026-02-17 06:14 | 38.26234 | 13.34958 | 3473 ft | 165 kts | 259° |
| 2026-02-17 06:14 | 38.25788 | 13.33617 | 3352 ft | 164 kts | 259° |
| 2026-02-17 06:14 | 38.25342 | 13.32282 | 3236 ft | 163 kts | 259° |
| 2026-02-17 06:15 | 38.24487 | 13.29730 | 3047 ft | 148 kts | 260° |
| 2026-02-17 06:15 | 38.24096 | 13.28560 | 2854 ft | 140 kts | 260° |
| 2026-02-17 06:15 | 38.23726 | 13.27452 | 2685 ft | 132 kts | 261° |
| 2026-02-17 06:15 | 38.23375 | 13.26403 | 2516 ft | 125 kts | 261° |
| 2026-02-17 06:16 | 38.23043 | 13.25409 | 2353 ft | 120 kts | 261° |
| 2026-02-17 06:16 | 38.22721 | 13.24442 | 2190 ft | 119 kts | 260° |
| 2026-02-17 06:16 | 38.22398 | 13.23469 | 2041 ft | 119 kts | 259° |
| 2026-02-17 06:17 | 38.21753 | 13.21543 | 1722 ft | 116 kts | 262° |
| 2026-02-17 06:17 | 38.21430 | 13.20572 | 1557 ft | 119 kts | 259° |
| 2026-02-17 06:17 | 38.21104 | 13.19600 | 1390 ft | 118 kts | 258° |
| 2026-02-17 06:17 | 38.20788 | 13.18656 | 1227 ft | 118 kts | 258° |
| 2026-02-17 06:18 | 38.20465 | 13.17687 | 1065 ft | 128 kts | 254° |
| 2026-02-17 06:18 | 38.20129 | 13.16694 | 907 ft | 119 kts | 256° |
| 2026-02-17 06:18 | 38.19808 | 13.15736 | 739 ft | 118 kts | 255° |
| 2026-02-17 06:19 | 38.19130 | 13.13713 | 410 ft | 123 kts | 251° |
| 2026-02-17 06:19 | 38.18797 | 13.12719 | 243 ft | 121 kts | 252° |
| 2026-02-17 06:19 | 38.18455 | 13.11697 | 87 ft | 124 kts | 250° |
| 2026-02-17 06:19 | 38.18177 | 13.10869 | 69 ft | 75 kts | 246° |
| 2026-02-17 06:20 | 38.18041 | 13.10460 | 67 ft | 31 kts | 247° |
| 2026-02-17 06:20 | 38.18013 | 13.10278 | 68 ft | 18 kts | 275° |
| 2026-02-17 06:20 | 38.18026 | 13.10137 | 65 ft | 14 kts | 276° |
| 2026-02-17 06:20 | 38.18036 | 13.10016 | 66 ft | 13 kts | 276° |
| 2026-02-17 06:21 | 38.18074 | 13.09969 | 63 ft | 7 kts | 49° |
| 2026-02-17 06:21 | 38.18103 | 13.10038 | 61 ft | 11 kts | 68° |
| 2026-02-17 06:21 | 38.18143 | 13.10138 | 64 ft | 15 kts | 44° |
| 2026-02-17 06:21 | 38.18233 | 13.10127 | 63 ft | 12 kts | 335° |
| 2026-02-17 06:22 | 38.18288 | 13.10121 | 65 ft | 7 kts | 45° |
| 2026-02-17 06:22 | 38.18306 | 13.10165 | 62 ft | 0 kts | 64° |